Grand Falls, Minnesota
Current Conditions -  °F | °C
As of 11:51 PM on Saturday 22 Nov 2014 (Local Time) from KVWU Reporting Station
Overcast Overcast  
Wind Chill: 34°   Ceiling: 1000
Heat Index: 34°   Visibility: 7mi
Dew Point: 30°   Wind: 0mph
Humidity: 87%   Direction: NA
Pressure: 29.41"   Gusts: NA
Location:  48.1809°N, 93.8949°W
Report Text: KVWU 230551Z AUTO 00000KT 7SM OVC010 01/M01 A2941 RMK AO2
Loading
Personal Weather Stations






























Interactive Weather Map New forecast layout! Learn more

10-Day Weather Forecast

Advertisements
Track Severe Weather on mobile